Time;durP1;ratioP1;P1;durP2;ratioP2;P2;SDS_P1;SDS_P2;PMS_P1;PMS_P2;Temp;Humidity;BMP_temperature;BMP_pressure;BME280_temperature;BME280_humidity;BME280_pressure;Samples;Min_cycle;Max_cycle;Signal;HPM_P1;HPM_P2
2021/07/10 00:00:14;;;;;;;16.77;12.67;;;;;16.30;101455.00;;;;10429106;28;20202;-78
2021/07/10 00:05:16;;;;;;;15.90;12.47;;;;;16.20;101458.00;;;;10428047;28;20252;-78
2021/07/10 00:10:19;;;;;;;16.80;12.97;;;;;16.20;101461.00;;;;10428778;28;20580;-77
2021/07/10 00:15:22;;;;;;;17.67;13.37;;;;;16.10;101448.00;;;;10451188;28;20215;-77
2021/07/10 00:20:25;;;;;;;20.63;13.93;;;;;16.00;101459.00;;;;10503673;28;20193;-78
2021/07/10 00:25:27;;;;;;;20.47;14.20;;;;;16.00;101436.00;;;;10427676;28;20546;-78
2021/07/10 00:30:30;;;;;;;19.63;14.13;;;;;15.90;101438.00;;;;10428003;28;20190;-78
2021/07/10 00:35:32;;;;;;;19.63;13.63;;;;;15.90;101432.00;;;;10411581;28;20210;-78
2021/07/10 00:40:34;;;;;;;19.67;13.43;;;;;15.80;101434.00;;;;10411006;28;20218;-79
2021/07/10 00:45:36;;;;;;;23.60;16.07;;;;;15.70;101423.00;;;;10416805;28;20236;-78
2021/07/10 00:50:38;;;;;;;21.23;15.27;;;;;15.70;101414.00;;;;10493847;28;20186;-78
2021/07/10 00:55:41;;;;;;;23.90;15.97;;;;;15.60;101414.00;;;;10431298;28;20613;-78
2021/07/10 01:00:44;;;;;;;22.90;15.90;;;;;15.60;101407.00;;;;10436684;28;20229;-77
2021/07/10 01:05:46;;;;;;;22.27;15.23;;;;;15.60;101405.00;;;;10423340;28;20228;-78
2021/07/10 01:10:50;;;;;;;25.50;16.53;;;;;15.50;101397.00;;;;10422990;28;20187;-77
2021/07/10 01:15:52;;;;;;;17.87;14.53;;;;;15.50;101395.00;;;;10438506;28;20241;-77
2021/07/10 01:20:54;;;;;;;19.87;14.13;;;;;15.50;101401.00;;;;10439648;28;20190;-77
2021/07/10 01:25:56;;;;;;;25.63;15.60;;;;;15.40;101388.00;;;;10489513;28;20186;-77
2021/07/10 01:30:59;;;;;;;22.70;15.73;;;;;15.50;101396.00;;;;10496632;28;20186;-77
2021/07/10 01:36:01;;;;;;;26.13;17.77;;;;;15.50;101397.00;;;;10496300;28;20313;-77
2021/07/10 01:41:03;;;;;;;24.50;17.10;;;;;15.60;101386.00;;;;10479594;28;20618;-77
2021/07/10 01:46:05;;;;;;;28.33;18.30;;;;;15.70;101382.00;;;;10463338;28;20185;-77
2021/07/10 01:51:08;;;;;;;28.77;18.57;;;;;15.70;101380.00;;;;10462570;28;20190;-77
2021/07/10 01:56:09;;;;;;;24.37;16.37;;;;;15.70;101376.00;;;;10494856;28;20209;-77
2021/07/10 02:01:11;;;;;;;18.70;14.83;;;;;15.70;101358.00;;;;10462206;28;20194;-77
2021/07/10 02:06:13;;;;;;;19.37;14.57;;;;;15.60;101352.00;;;;10477785;28;20211;-77
2021/07/10 02:11:15;;;;;;;20.90;15.40;;;;;15.50;101331.00;;;;10461270;28;20193;-78
2021/07/10 02:16:17;;;;;;;22.90;15.87;;;;;15.40;101328.00;;;;10477995;28;20248;-78
2021/07/10 02:21:19;;;;;;;24.87;16.00;;;;;15.30;101324.00;;;;10494146;28;20193;-77
2021/07/10 02:26:22;;;;;;;20.57;14.23;;;;;15.10;101332.00;;;;10436166;28;20222;-76
2021/07/10 02:31:24;;;;;;;25.33;16.57;;;;;15.00;101315.00;;;;10420277;28;20194;-77
2021/07/10 02:36:27;;;;;;;21.50;15.33;;;;;14.90;101315.00;;;;10436026;28;20224;-77
2021/07/10 02:41:29;;;;;;;27.87;17.73;;;;;14.90;101313.00;;;;10418410;28;20209;-77
2021/07/10 02:46:31;;;;;;;23.60;16.87;;;;;14.80;101306.00;;;;10468397;28;20190;-77
2021/07/10 02:51:33;;;;;;;22.63;16.03;;;;;14.70;101297.00;;;;10402266;28;20195;-77
2021/07/10 02:56:35;;;;;;;22.30;16.37;;;;;14.70;101300.00;;;;10422418;28;20555;-77
2021/07/10 03:01:37;;;;;;;24.30;16.40;;;;;14.60;101309.00;;;;10434667;28;20195;-77
2021/07/10 03:06:39;;;;;;;21.77;15.70;;;;;14.50;101310.00;;;;10451173;28;20236;-77
2021/07/10 03:11:41;;;;;;;27.83;18.20;;;;;14.40;101310.00;;;;10449895;28;20236;-77
2021/07/10 03:16:43;;;;;;;25.27;18.10;;;;;14.50;101313.00;;;;10451213;28;20210;-77
2021/07/10 03:21:45;;;;;;;28.53;18.87;;;;;14.50;101307.00;;;;10417643;28;20562;-78
2021/07/10 03:26:47;;;;;;;29.23;19.13;;;;;14.50;101306.00;;;;10417912;28;20198;-77
2021/07/10 03:31:50;;;;;;;31.63;19.77;;;;;14.60;101301.00;;;;10418100;28;20218;-77
2021/07/10 03:36:52;;;;;;;33.23;20.43;;;;;14.60;101288.00;;;;10432836;28;20212;-77
2021/07/10 03:41:53;;;;;;;36.23;20.73;;;;;14.70;101288.00;;;;10432599;28;20191;-77
2021/07/10 03:46:55;;;;;;;32.07;21.10;;;;;14.80;101290.00;;;;10432368;28;20201;-77
2021/07/10 03:51:59;;;;;;;32.23;21.07;;;;;14.90;101288.00;;;;10451760;28;20202;-78
2021/07/10 03:57:01;;;;;;;31.40;20.43;;;;;15.00;101286.00;;;;10434626;28;20228;-77
2021/07/10 04:02:03;;;;;;;29.93;19.90;;;;;15.10;101287.00;;;;10417361;28;20218;-78
2021/07/10 04:07:05;;;;;;;29.97;19.67;;;;;15.10;101281.00;;;;10433003;28;20186;-77
2021/07/10 04:12:07;;;;;;;29.40;19.90;;;;;15.10;101275.00;;;;10416104;28;20202;-78
2021/07/10 04:17:09;;;;;;;30.17;19.07;;;;;15.10;101269.00;;;;10449250;28;20255;-77
2021/07/10 04:22:11;;;;;;;30.33;19.77;;;;;15.20;101264.00;;;;10433628;28;20205;-77
2021/07/10 04:27:14;;;;;;;27.30;19.20;;;;;15.40;101275.00;;;;10456876;28;20648;-77
2021/07/10 04:32:16;;;;;;;27.00;18.90;;;;;15.50;101284.00;;;;10490650;28;20797;-77
2021/07/10 04:37:19;;;;;;;23.13;16.77;;;;;15.60;101279.00;;;;10474564;28;20244;-77
2021/07/10 04:42:23;;;;;;;24.97;16.77;;;;;15.80;101278.00;;;;10455853;28;20697;-77
2021/07/10 04:47:26;;;;;;;23.93;16.83;;;;;15.90;101267.00;;;;10473059;28;20192;-77
2021/07/10 04:52:28;;;;;;;29.77;19.53;;;;;15.90;101263.00;;;;10457518;28;20247;-78
2021/07/10 04:57:30;;;;;;;24.53;16.70;;;;;16.00;101273.00;;;;10473691;28;20209;-77
2021/07/10 05:02:32;;;;;;;22.33;16.80;;;;;16.10;101275.00;;;;10487366;28;20224;-77
2021/07/10 05:07:34;;;;;;;21.13;16.57;;;;;16.20;101275.00;;;;10432552;28;20190;-78
2021/07/10 05:12:37;;;;;;;21.17;15.10;;;;;16.30;101277.00;;;;10432255;28;20577;-78
2021/07/10 05:17:39;;;;;;;20.43;14.87;;;;;16.50;101285.00;;;;10415171;28;20210;-77
2021/07/10 05:22:42;;;;;;;21.30;14.63;;;;;16.70;101283.00;;;;10403281;28;20198;-78
2021/07/10 05:27:44;;;;;;;18.67;13.83;;;;;16.90;101276.00;;;;10472587;28;20193;-78
2021/07/10 05:32:46;;;;;;;15.77;13.10;;;;;17.10;101280.00;;;;10452522;28;20225;-77
2021/07/10 05:37:49;;;;;;;14.20;12.57;;;;;17.40;101273.00;;;;10437942;28;20214;-77
2021/07/10 05:42:51;;;;;;;16.17;12.73;;;;;17.70;101285.00;;;;10439151;28;20199;-78
2021/07/10 05:47:53;;;;;;;13.93;12.00;;;;;17.90;101280.00;;;;10438991;28;20244;-78
2021/07/10 05:52:54;;;;;;;14.43;12.35;;;;;18.10;101280.00;;;;10448601;28;20194;-78
2021/07/10 05:57:56;;;;;;;13.52;10.60;;;;;18.30;101283.00;;;;10455602;28;20735;-77
2021/07/10 06:02:59;;;;;;;17.55;12.05;;;;;18.50;101282.00;;;;10423334;28;20592;-78
2021/07/10 06:08:01;;;;;;;14.02;11.32;;;;;18.70;101283.00;;;;10452728;28;20273;-78
2021/07/10 06:13:04;;;;;;;14.55;10.88;;;;;18.90;101294.00;;;;10467584;28;20219;-78
2021/07/10 06:18:06;;;;;;;16.00;10.38;;;;;19.10;101284.00;;;;10479698;28;20206;-77
2021/07/10 06:23:09;;;;;;;11.98;10.73;;;;;19.40;101277.00;;;;10456795;28;20198;-78
2021/07/10 06:28:10;;;;;;;14.48;10.23;;;;;19.60;101281.00;;;;10489897;28;20223;-78
2021/07/10 06:33:12;;;;;;;12.85;9.55;;;;;19.90;101289.00;;;;10465080;28;20235;-78
2021/07/10 06:38:14;;;;;;;15.40;10.85;;;;;20.00;101291.00;;;;10481417;28;20209;-78
2021/07/10 06:43:16;;;;;;;13.38;9.95;;;;;20.00;101284.00;;;;10463455;28;20259;-77
2021/07/10 06:48:18;;;;;;;13.43;10.32;;;;;20.20;101296.00;;;;10480641;28;20212;-78
2021/07/10 06:53:22;;;;;;;11.00;9.60;;;;;20.60;101291.00;;;;10497620;28;20224;-78
2021/07/10 06:58:23;;;;;;;13.20;9.65;;;;;21.00;101303.00;;;;10480323;28;20262;-78
2021/07/10 07:03:25;;;;;;;11.50;9.23;;;;;21.30;101306.00;;;;10496390;28;20190;-78
2021/07/10 07:08:27;;;;;;;15.48;10.23;;;;;21.40;101309.00;;;;10463162;28;20215;-78
2021/07/10 07:13:29;;;;;;;11.65;10.20;;;;;21.40;101309.00;;;;10496316;28;20189;-78
2021/07/10 07:18:31;;;;;;;13.00;9.35;;;;;21.50;101310.00;;;;10463988;28;20221;-78
2021/07/10 07:23:39;;;;;;;11.80;9.70;;;;;21.60;101306.00;;;;10478285;28;20208;-77
2021/07/10 07:28:40;;;;;;;12.63;9.23;;;;;21.70;101302.00;;;;10521530;28;20645;-78
2021/07/10 07:33:42;;;;;;;11.20;9.85;;;;;21.80;101286.00;;;;10505255;28;20221;-78
2021/07/10 07:38:44;;;;;;;12.75;9.15;;;;;22.10;101281.00;;;;10537945;28;20213;-78
2021/07/10 07:43:46;;;;;;;10.65;8.70;;;;;22.90;101274.00;;;;10467752;28;20210;-77
2021/07/10 07:48:48;;;;;;;11.50;8.35;;;;;24.10;101274.00;;;;10478253;28;20261;-77
2021/07/10 07:53:50;;;;;;;9.52;7.78;;;;;25.20;101270.00;;;;10482640;28;20538;-78
2021/07/10 07:58:53;;;;;;;10.43;8.27;;;;;25.50;101271.00;;;;10472896;28;20232;-78
2021/07/10 08:03:55;;;;;;;10.30;7.63;;;;;25.70;101258.00;;;;10489462;28;20201;-78
2021/07/10 08:08:57;;;;;;;9.68;7.10;;;;;25.80;101254.00;;;;10453184;28;20201;-78
2021/07/10 08:13:59;;;;;;;11.63;8.25;;;;;25.70;101248.00;;;;10458510;28;20197;-78
2021/07/10 08:19:03;;;;;;;11.40;7.45;;;;;25.80;101243.00;;;;10477198;28;20241;-78
2021/07/10 08:24:05;;;;;;;10.23;7.82;;;;;25.70;101233.00;;;;10443307;28;20251;-78
2021/07/10 08:29:07;;;;;;;9.98;6.70;;;;;26.10;101226.00;;;;10474775;28;20319;-78
2021/07/10 08:34:10;;;;;;;8.20;6.63;;;;;26.40;101222.00;;;;10460101;28;20210;-78
2021/07/10 08:39:11;;;;;;;10.00;6.95;;;;;27.00;101211.00;;;;10477896;28;20218;-78
2021/07/10 08:44:14;;;;;;;10.63;7.07;;;;;27.50;101206.00;;;;10417320;28;20209;-79
2021/07/10 08:49:16;;;;;;;8.00;6.70;;;;;27.80;101195.00;;;;10451267;28;20190;-79
2021/07/10 08:54:18;;;;;;;11.18;6.97;;;;;27.90;101202.00;;;;10471974;28;20205;-79
2021/07/10 08:59:20;;;;;;;8.25;7.03;;;;;27.40;101206.00;;;;10475991;28;20190;-78
2021/07/10 09:04:23;;;;;;;9.05;6.22;;;;;28.10;101206.00;;;;10477123;28;20604;-78
2021/07/10 09:09:58;;;;;;;7.20;5.75;;;;;27.40;101195.00;;;;10488896;28;20181;-79
2021/07/10 09:15:19;;;;;;;6.63;5.60;;;;;27.30;101194.00;;;;10430665;28;20668;-79
2021/07/10 09:20:24;;;;;;;7.38;5.78;;;;;27.70;101192.00;;;;10485431;28;20242;-78
2021/07/10 09:25:32;;;;;;;8.40;5.50;;;;;29.00;101187.00;;;;10443936;28;20194;-78
2021/07/10 09:30:35;;;;;;;6.18;4.05;;;;;29.40;101179.00;;;;10461231;28;20179;-79
2021/07/10 09:35:54;;;;;;;7.40;4.60;;;;;29.00;101171.00;;;;10458515;28;20225;-78
2021/07/10 09:41:13;;;;;;;4.53;4.07;;;;;28.80;101170.00;;;;10428616;28;20198;-79
2021/07/10 09:46:24;;;;;;;6.43;3.92;;;;;28.30;101159.00;;;;10468495;28;20189;-79
2021/07/10 09:51:27;;;;;;;4.93;4.10;;;;;27.90;101152.00;;;;10443273;28;20199;-79
2021/07/10 09:56:31;;;;;;;4.53;3.53;;;;;27.60;101152.00;;;;10500351;28;20212;-79
2021/07/10 10:01:35;;;;;;;4.38;3.42;;;;;27.20;101140.00;;;;10470146;28;20224;-79
2021/07/10 10:06:37;;;;;;;6.13;4.35;;;;;26.40;101136.00;;;;10469283;28;20194;-78
2021/07/10 10:11:49;;;;;;;7.55;3.92;;;;;25.80;101129.00;;;;10428840;28;20208;-79
2021/07/10 10:16:51;;;;;;;6.05;4.30;;;;;25.70;101130.00;;;;10442070;28;20225;-78
2021/07/10 10:21:55;;;;;;;5.07;3.42;;;;;25.80;101128.00;;;;10440161;28;20190;-78
2021/07/10 10:26:58;;;;;;;6.68;3.30;;;;;26.20;101117.00;;;;10456146;28;20317;-78
2021/07/10 10:32:01;;;;;;;3.95;3.55;;;;;26.80;101116.00;;;;10429702;28;20218;-79
2021/07/10 10:37:04;;;;;;;5.43;3.13;;;;;27.40;101108.00;;;;10422930;28;20221;-78
2021/07/10 10:42:15;;;;;;;4.90;3.28;;;;;27.60;101108.00;;;;10422283;28;20209;-78
2021/07/10 10:47:21;;;;;;;4.57;3.80;;;;;27.50;101104.00;;;;10438671;28;20220;-78
2021/07/10 10:52:32;;;;;;;4.30;3.90;;;;;27.90;101100.00;;;;10463934;28;20217;-78
2021/07/10 10:57:38;;;;;;;4.47;3.58;;;;;28.00;101093.00;;;;10449259;28;20656;-79
2021/07/10 11:02:56;;;;;;;4.97;4.47;;;;;28.40;101081.00;;;;10479906;28;20190;-79
2021/07/10 11:08:36;;;;;;;6.65;3.88;;;;;28.40;101075.00;;;;10453187;28;20193;-79
2021/07/10 11:13:41;;;;;;;4.20;3.33;;;;;29.00;101067.00;;;;10453122;28;20194;-79
2021/07/10 11:19:38;;;;;;;3.58;3.00;;;;;29.50;101073.00;;;;10420666;28;20208;-79
2021/07/10 11:24:46;;;;;;;5.45;3.47;;;;;30.20;101059.00;;;;10297746;28;20256;-79
2021/07/10 11:29:48;;;;;;;4.78;3.08;;;;;30.40;101051.00;;;;10435746;28;20297;-79
2021/07/10 11:34:59;;;;;;;3.05;2.70;;;;;31.80;101046.00;;;;10439773;28;20233;-79
2021/07/10 11:40:07;;;;;;;4.05;3.08;;;;;33.30;101037.00;;;;10434919;28;20665;-80
2021/07/10 11:45:29;;;;;;;4.07;2.83;;;;;32.50;101041.00;;;;10442479;28;20194;-80
2021/07/10 11:50:38;;;;;;;5.25;2.83;;;;;31.50;101039.00;;;;10434030;28;20653;-79
2021/07/10 11:55:45;;;;;;;4.22;2.65;;;;;30.40;101037.00;;;;10416988;28;20206;-79
2021/07/10 12:00:48;;;;;;;3.60;2.80;;;;;29.80;101026.00;;;;10451301;28;20273;-79
2021/07/10 12:05:52;;;;;;;4.68;2.67;;;;;31.50;101004.00;;;;10433419;28;20194;-79
2021/07/10 12:10:55;;;;;;;4.57;2.83;;;;;31.80;100995.00;;;;10473624;28;20197;-80
2021/07/10 12:16:05;;;;;;;4.40;2.92;;;;;31.00;101006.00;;;;10472935;28;20206;-79
2021/07/10 12:21:15;;;;;;;6.40;3.55;;;;;30.10;100994.00;;;;10474260;28;20197;-79
2021/07/10 12:26:20;;;;;;;2.65;2.40;;;;;29.50;100994.00;;;;10449176;28;20588;-79
2021/07/10 12:31:36;;;;;;;3.67;2.70;;;;;29.00;100989.00;;;;10448467;28;20187;-79
2021/07/10 12:36:38;;;;;;;5.35;2.90;;;;;29.00;100984.00;;;;10448941;28;20205;-79
2021/07/10 12:41:46;;;;;;;4.30;3.03;;;;;28.70;100982.00;;;;10466937;28;20202;-79
2021/07/10 12:46:57;;;;;;;5.47;3.15;;;;;27.90;100986.00;;;;10469382;28;20239;-78
2021/07/10 12:52:01;;;;;;;3.00;2.70;;;;;27.30;100981.00;;;;10499769;28;20196;-79
2021/07/10 12:57:35;;;;;;;3.70;2.85;;;;;26.50;100987.00;;;;10441970;28;20810;-79
2021/07/10 13:02:51;;;;;;;4.85;2.90;;;;;26.80;100977.00;;;;10425216;28;20224;-79
2021/07/10 13:08:23;;;;;;;4.88;2.97;;;;;27.40;100962.00;;;;10456789;28;20188;-78
2021/07/10 13:13:34;;;;;;;3.60;3.30;;;;;27.30;100970.00;;;;10440581;28;20191;-79
2021/07/10 13:18:58;;;;;;;4.18;3.17;;;;;27.40;100953.00;;;;10441186;28;20207;-79
2021/07/10 13:24:03;;;;;;;4.85;3.90;;;;;27.20;100959.00;;;;10456303;28;20232;-79
2021/07/10 13:29:13;;;;;;;4.07;2.80;;;;;26.80;100955.00;;;;10482127;28;20194;-78
2021/07/10 13:34:19;;;;;;;3.47;2.63;;;;;26.50;100956.00;;;;10496175;28;20231;-79
2021/07/10 13:39:27;;;;;;;6.10;3.13;;;;;26.30;100957.00;;;;10423947;28;20240;-79
2021/07/10 13:44:34;;;;;;;4.57;3.03;;;;;26.10;100956.00;;;;10455875;28;20194;-79
2021/07/10 13:49:41;;;;;;;5.07;3.20;;;;;25.60;100977.00;;;;10455634;28;20640;-78
2021/07/10 13:54:52;;;;;;;10.75;4.55;;;;;24.10;100985.00;;;;10449916;28;20210;-78
2021/07/10 14:00:14;;;;;;;9.70;4.93;;;;;21.70;100988.00;;;;10476033;28;20198;-77
2021/07/10 14:05:52;;;;;;;9.18;5.25;;;;;20.40;101029.00;;;;10497427;28;20204;-78
2021/07/10 14:10:54;;;;;;;10.65;5.97;;;;;19.90;101026.00;;;;10420840;28;20288;-77
2021/07/10 14:15:58;;;;;;;9.65;5.97;;;;;19.80;101023.00;;;;10500336;28;20660;-78
2021/07/10 14:20:59;;;;;;;7.55;5.45;;;;;19.30;101009.00;;;;10499216;28;20396;-78
2021/07/10 14:26:01;;;;;;;10.30;6.13;;;;;19.00;101010.00;;;;10514120;28;20190;-78
2021/07/10 14:31:03;;;;;;;10.82;6.65;;;;;18.50;101015.00;;;;10481886;28;20190;-78
2021/07/10 14:36:05;;;;;;;9.20;6.68;;;;;18.20;100998.00;;;;10473000;28;20217;-77
2021/07/10 14:41:08;;;;;;;9.15;6.45;;;;;18.00;100994.00;;;;10452822;28;20204;-76
2021/07/10 14:46:10;;;;;;;10.90;7.00;;;;;18.00;100985.00;;;;10451727;28;20189;-76
2021/07/10 14:51:12;;;;;;;12.40;8.77;;;;;18.10;101007.00;;;;10467644;28;20186;-76
2021/07/10 14:56:14;;;;;;;15.45;9.50;;;;;18.10;101013.00;;;;10475348;28;20262;-76
2021/07/10 15:01:16;;;;;;;17.30;12.05;;;;;18.00;101026.00;;;;10465819;28;20186;-76
2021/07/10 15:06:18;;;;;;;13.73;9.55;;;;;17.90;101019.00;;;;10465339;28;20201;-76
2021/07/10 15:11:21;;;;;;;13.85;11.13;;;;;17.70;101022.00;;;;10465476;28;20185;-76
2021/07/10 15:16:25;;;;;;;12.77;8.15;;;;;17.60;101022.00;;;;10482633;28;20194;-76
2021/07/10 15:21:28;;;;;;;10.30;8.13;;;;;17.50;101019.00;;;;10482227;28;20192;-75
2021/07/10 15:26:30;;;;;;;10.60;6.22;;;;;17.20;101023.00;;;;10482345;28;20215;-75
2021/07/10 15:31:32;;;;;;;11.05;6.15;;;;;17.00;101024.00;;;;10464527;28;20219;-75
2021/07/10 15:36:34;;;;;;;8.40;5.03;;;;;16.80;101034.00;;;;10481476;28;20209;-75
2021/07/10 15:41:36;;;;;;;6.63;5.27;;;;;16.70;101034.00;;;;10464417;28;20197;-75
2021/07/10 15:46:40;;;;;;;7.87;6.10;;;;;16.70;101029.00;;;;10458381;28;20188;-75
2021/07/10 15:51:43;;;;;;;10.13;6.13;;;;;16.70;101010.00;;;;10489183;28;20193;-75
2021/07/10 15:56:45;;;;;;;12.40;7.20;;;;;16.70;101000.00;;;;10505401;28;20690;-75
2021/07/10 16:01:47;;;;;;;9.83;7.50;;;;;16.80;100995.00;;;;10488808;28;20197;-75
2021/07/10 16:06:49;;;;;;;11.57;9.20;;;;;16.90;100995.00;;;;10488580;28;20663;-75
2021/07/10 16:11:51;;;;;;;10.70;9.13;;;;;17.00;100995.00;;;;10479453;28;20208;-75
2021/07/10 16:16:53;;;;;;;12.77;9.70;;;;;17.10;100990.00;;;;10462354;28;20221;-75
2021/07/10 16:21:55;;;;;;;11.17;9.83;;;;;17.20;100985.00;;;;10480153;28;20194;-75
2021/07/10 16:26:57;;;;;;;12.80;10.00;;;;;17.40;100980.00;;;;10504639;28;20203;-75
2021/07/10 16:31:59;;;;;;;12.27;9.02;;;;;17.60;100971.00;;;;10504396;28;20208;-75
2021/07/10 16:37:01;;;;;;;11.23;8.13;;;;;17.80;100951.00;;;;10521028;28;20266;-75
2021/07/10 16:42:04;;;;;;;12.40;8.50;;;;;18.20;100936.00;;;;10504340;28;20200;-75
2021/07/10 16:47:06;;;;;;;12.20;9.18;;;;;18.80;100934.00;;;;10470685;28;20249;-74
2021/07/10 16:52:08;;;;;;;10.88;8.55;;;;;19.50;100932.00;;;;10503569;28;20242;-75
2021/07/10 16:57:10;;;;;;;11.27;8.88;;;;;19.60;100934.00;;;;10517021;28;20579;-75
2021/07/10 17:02:12;;;;;;;12.18;9.40;;;;;19.10;100928.00;;;;10490371;28;20194;-75
2021/07/10 17:07:14;;;;;;;13.85;9.15;;;;;18.70;100929.00;;;;10478618;28;20190;-75
2021/07/10 17:12:16;;;;;;;15.55;11.30;;;;;18.60;100926.00;;;;10478681;28;20186;-75
2021/07/10 17:17:18;;;;;;;16.17;13.30;;;;;18.60;100928.00;;;;10486536;28;20698;-75
2021/07/10 17:22:20;;;;;;;19.63;13.73;;;;;18.60;100930.00;;;;10503120;28;20201;-75
2021/07/10 17:27:22;;;;;;;17.80;14.60;;;;;18.50;100934.00;;;;10507064;28;20193;-75
2021/07/10 17:32:24;;;;;;;17.70;15.40;;;;;18.40;100937.00;;;;10510467;28;20737;-75
2021/07/10 17:37:26;;;;;;;17.90;14.32;;;;;18.40;100944.00;;;;10527286;28;20236;-75
2021/07/10 17:42:28;;;;;;;18.52;14.55;;;;;18.20;100961.00;;;;10504649;28;20229;-75
2021/07/10 17:47:31;;;;;;;18.27;13.82;;;;;18.00;100978.00;;;;10484949;28;20194;-75
2021/07/10 17:52:33;;;;;;;18.90;14.93;;;;;18.00;100972.00;;;;10488640;28;20801;-75
2021/07/10 17:57:36;;;;;;;17.52;13.98;;;;;17.90;100978.00;;;;10509874;28;20218;-75
2021/07/10 18:02:38;;;;;;;23.48;14.90;;;;;17.80;100979.00;;;;10526400;28;20199;-75
2021/07/10 18:07:43;;;;;;;17.85;14.07;;;;;17.70;100987.00;;;;10509277;28;20185;-75
2021/07/10 18:12:46;;;;;;;16.92;14.63;;;;;17.50;100996.00;;;;10488493;28;20749;-75
2021/07/10 18:17:48;;;;;;;19.63;15.20;;;;;17.40;101008.00;;;;10483936;28;20209;-75
2021/07/10 18:22:50;;;;;;;19.40;16.15;;;;;17.40;101022.00;;;;10483626;28;20189;-75
2021/07/10 18:27:51;;;;;;;19.08;15.98;;;;;17.40;101008.00;;;;10467299;28;20189;-75
2021/07/10 18:32:54;;;;;;;20.37;15.87;;;;;17.40;101013.00;;;;10458656;28;20222;-75
2021/07/10 18:37:56;;;;;;;19.87;16.50;;;;;17.40;101025.00;;;;10407923;28;20286;-75
2021/07/10 18:42:59;;;;;;;17.30;12.55;;;;;17.40;101025.00;;;;10437661;28;20210;-75
2021/07/10 18:48:02;;;;;;;20.15;14.68;;;;;17.40;101024.00;;;;10425419;28;20194;-75
2021/07/10 18:53:06;;;;;;;20.25;15.38;;;;;17.40;101030.00;;;;10435915;28;20193;-75
2021/07/10 18:58:09;;;;;;;21.02;14.55;;;;;17.40;101022.00;;;;10499759;28;20198;-75
2021/07/10 19:03:12;;;;;;;17.07;13.97;;;;;17.40;101024.00;;;;10482322;28;20193;-75
2021/07/10 19:08:14;;;;;;;14.35;11.88;;;;;17.40;101024.00;;;;10481602;28;20190;-76
2021/07/10 19:13:17;;;;;;;16.45;13.75;;;;;17.30;101015.00;;;;10465034;28;20198;-75
2021/07/10 19:18:19;;;;;;;14.85;12.43;;;;;17.20;101022.00;;;;10464707;28;20217;-75
2021/07/10 19:23:22;;;;;;;16.90;13.27;;;;;17.20;101014.00;;;;10470898;28;20206;-75
2021/07/10 19:28:24;;;;;;;16.63;12.90;;;;;17.10;101021.00;;;;10423563;28;20181;-75
2021/07/10 19:33:25;;;;;;;22.43;15.50;;;;;17.10;101029.00;;;;10422889;28;20218;-75
2021/07/10 19:38:27;;;;;;;23.50;17.07;;;;;17.00;101031.00;;;;10422881;28;20206;-75
2021/07/10 19:43:29;;;;;;;21.93;15.37;;;;;17.00;101035.00;;;;10422982;28;20202;-75
2021/07/10 19:48:31;;;;;;;22.60;16.30;;;;;17.00;101038.00;;;;10438729;28;20194;-75
2021/07/10 19:53:33;;;;;;;20.80;16.37;;;;;16.90;101039.00;;;;10434596;28;20853;-75
2021/07/10 19:58:35;;;;;;;21.37;16.37;;;;;16.90;101050.00;;;;10463235;28;20212;-75
2021/07/10 20:03:37;;;;;;;22.77;16.50;;;;;16.80;101041.00;;;;10463433;28;20668;-75
2021/07/10 20:08:39;;;;;;;27.63;17.30;;;;;16.80;101050.00;;;;10497700;28;20185;-75
2021/07/10 20:13:41;;;;;;;23.20;16.27;;;;;16.70;101056.00;;;;10446921;28;20198;-75
2021/07/10 20:18:44;;;;;;;20.67;17.17;;;;;16.70;101050.00;;;;10462923;28;20209;-75
2021/07/10 20:23:46;;;;;;;24.40;17.30;;;;;16.60;101050.00;;;;10465427;28;20590;-75
2021/07/10 20:28:48;;;;;;;23.77;17.90;;;;;16.60;101045.00;;;;10438096;28;20206;-76
2021/07/10 20:33:50;;;;;;;25.10;16.43;;;;;16.60;101044.00;;;;10421386;28;20270;-75
2021/07/10 20:38:52;;;;;;;24.43;16.90;;;;;16.50;101043.00;;;;10437665;28;20213;-75
2021/07/10 20:43:55;;;;;;;23.30;16.37;;;;;16.40;101041.00;;;;10421301;28;20252;-76
2021/07/10 20:48:57;;;;;;;28.37;18.60;;;;;16.30;101041.00;;;;10437463;28;20182;-76
2021/07/10 20:53:59;;;;;;;25.73;18.37;;;;;16.20;101055.00;;;;10453378;28;20198;-76
2021/07/10 20:59:01;;;;;;;26.37;18.47;;;;;16.10;101064.00;;;;10478880;28;20213;-76
2021/07/10 21:04:03;;;;;;;26.23;19.17;;;;;16.00;101072.00;;;;10452036;28;20198;-76
2021/07/10 21:09:14;;;;;;;23.00;18.43;;;;;16.00;101081.00;;;;10470048;28;20186;-76
2021/07/10 21:14:18;;;;;;;25.23;19.23;;;;;16.00;101087.00;;;;10470014;28;20189;-76
2021/07/10 21:19:20;;;;;;;35.23;21.27;;;;;16.00;101095.00;;;;10469263;28;20209;-75
2021/07/10 21:24:22;;;;;;;31.37;22.07;;;;;16.10;101088.00;;;;10434100;28;20206;-76
2021/07/10 21:29:24;;;;;;;34.70;24.17;;;;;16.10;101084.00;;;;10411808;28;20182;-76
2021/07/10 21:34:26;;;;;;;35.80;24.10;;;;;16.10;101101.00;;;;10411344;28;20225;-76
2021/07/10 21:39:28;;;;;;;33.87;23.70;;;;;16.10;101095.00;;;;10444251;28;20212;-75
2021/07/10 21:44:30;;;;;;;33.57;24.10;;;;;16.00;101096.00;;;;10443703;28;20202;-76
2021/07/10 21:49:32;;;;;;;31.00;22.70;;;;;16.00;101096.00;;;;10427392;28;20791;-75
2021/07/10 21:54:34;;;;;;;34.00;22.53;;;;;16.00;101101.00;;;;10463371;28;20557;-75
2021/07/10 21:59:38;;;;;;;29.03;21.83;;;;;16.00;101087.00;;;;10484429;28;20214;-76
2021/07/10 22:04:40;;;;;;;26.77;20.70;;;;;15.90;101101.00;;;;10484316;28;20198;-75
2021/07/10 22:09:42;;;;;;;33.10;22.03;;;;;15.80;101103.00;;;;10467945;28;20259;-76
2021/07/10 22:14:45;;;;;;;31.23;21.73;;;;;15.70;101114.00;;;;10467683;28;20239;-75
2021/07/10 22:19:47;;;;;;;32.63;21.17;;;;;15.60;101106.00;;;;10467507;28;20213;-75
2021/07/10 22:24:49;;;;;;;32.10;21.23;;;;;15.60;101113.00;;;;10478981;28;20194;-76
2021/07/10 22:29:51;;;;;;;32.83;23.43;;;;;15.50;101106.00;;;;10425902;28;20190;-76
2021/07/10 22:34:52;;;;;;;30.97;20.83;;;;;15.40;101100.00;;;;10425406;28;20214;-76
2021/07/10 22:39:54;;;;;;;56.30;23.57;;;;;15.30;101108.00;;;;10425512;28;20256;-75
2021/07/10 22:44:56;;;;;;;37.37;20.43;;;;;15.30;101119.00;;;;10424664;28;20190;-75
2021/07/10 22:49:58;;;;;;;31.80;21.43;;;;;15.30;101106.00;;;;10462573;28;20198;-75
2021/07/10 22:55:01;;;;;;;37.67;21.73;;;;;15.30;101104.00;;;;10465466;28;20205;-76
2021/07/10 23:00:07;;;;;;;31.30;20.20;;;;;15.30;101108.00;;;;10481924;28;20213;-75
2021/07/10 23:05:10;;;;;;;33.83;19.93;;;;;15.20;101108.00;;;;10481921;28;20243;-75
2021/07/10 23:10:13;;;;;;;33.03;19.60;;;;;15.20;101120.00;;;;10465574;28;20208;-76
2021/07/10 23:15:14;;;;;;;25.83;17.77;;;;;15.10;101115.00;;;;10481927;28;20166;-75
2021/07/10 23:20:17;;;;;;;24.03;16.70;;;;;15.00;101113.00;;;;10464844;28;20206;-75
2021/07/10 23:25:19;;;;;;;27.93;17.37;;;;;14.90;101116.00;;;;10444590;28;20217;-75
2021/07/10 23:30:21;;;;;;;27.87;18.10;;;;;14.80;101122.00;;;;10448131;28;20196;-75
2021/07/10 23:35:23;;;;;;;26.20;17.73;;;;;14.80;101117.00;;;;10480708;28;20218;-75
2021/07/10 23:40:28;;;;;;;22.90;17.30;;;;;14.80;101124.00;;;;10464320;28;20218;-75
2021/07/10 23:45:30;;;;;;;26.90;17.20;;;;;14.70;101127.00;;;;10447981;28;20250;-75
2021/07/10 23:50:34;;;;;;;31.90;18.20;;;;;14.70;101121.00;;;;10463881;28;20635;-75
2021/07/10 23:55:36;;;;;;;34.67;17.33;;;;;14.70;101133.00;;;;10434311;28;20198;-75
